KCMYKLVN

Guest
Details From KCMY - Sparta Fort Mc Coy
To KLVN - AIRLAKE
Flight Number -
Tags generated
Created
Modified
Stats Distance 114 nm / 212 km
Max Altitude 10,200 ft / 3,109 m
Waypoints 3
Social Downloads 1
Likes 0
Share VATSIM

Download

Looking for another format? Having issues loading an existing format? Contact us
Advertisement - Login to hide

Notes

Basic altitude profile: - Ascent Rate: 500ft/min - Ascent Speed: 90kts - Cruise Altitude: 6000ft - Cruise Speed: 120kts - Descent Rate: 500ft/min - Descent Speed: 90kts Options: - Use NATs: no - Use PACOTS: no - Use low airways: yes - Use high airways: no

Route

KCMY TROLL KLVN

ID Type Via Altitude Latitude Longitude Leg Dist Tot Dist Heading (true) Name
O KCMY APT - 0 ft / 0 m 43.95829˚ -90.73791˚ - 0 nm - Sparta Fort Mc Coy
TROLL FIX - 10,200 ft / 3,109 m 44.31846˚ -92.08081˚ 61 nm 61 nm 291° / 290° -
O KLVN APT - 0 ft / 0 m 44.62786˚ -93.22810˚ 52 nm 114 nm 291° / 290° AIRLAKE

Altitude Profile

Advertisement - Login to hide

KCMY

Details ICAO KCMY
Name Sparta Fort Mc Coy
Region United States
Timezone America/Chicago (UTC-6.0)
Stats Elevation 837 ft / 255 m (AMSL)
Location 43.958289° -90.737908°
Runways 2
Magnetic Variation 1.740° W

METAR

KCMY 161515Z AUTO 08010G14KT 7SM OVC009 M05/M06 A2986 RMK AO2 T10471061

Decode

TAF

Not found

Departure Runways

ID Width Length Bearing (true) Bearing (mag) Surface Threshold Offset Overrun Length
01 50 ft / 15 m 4,315 ft / 1,315 m 15.29° 17.03° Asphalt 1,375 ft / 419 m 0 ft / 0 m
11 100 ft / 30 m 4,700 ft / 1,433 m 112.22° 113.96° Asphalt 0 ft / 0 m 0 ft / 0 m
19 50 ft / 15 m 4,315 ft / 1,315 m 195.30° 197.04° Asphalt 0 ft / 0 m 0 ft / 0 m
29 100 ft / 30 m 4,700 ft / 1,433 m 292.23° 293.97° Asphalt 425 ft / 130 m 0 ft / 0 m

KLVN

Details ICAO KLVN
Name AIRLAKE
Region United States
Timezone America/Chicago (UTC-6.0)
Stats Elevation 960 ft / 293 m (AMSL)
Location 44.627858° -93.228097°
Runways 1
Magnetic Variation 0.218° E

METAR

KLVN 161515Z AUTO 06007KT 4SM BR OVC004 M04/M04 A2981 RMK AO2

Decode

TAF

Not found

Destination Runways

ID Width Length Bearing (true) Bearing (mag) Surface Threshold Offset Overrun Length
12 75 ft / 23 m 4,091 ft / 1,247 m 117.50° 117.28° Asphalt 0 ft / 0 m 0 ft / 0 m
30 75 ft / 23 m 4,091 ft / 1,247 m 297.51° 297.29° Asphalt 391 ft / 119 m 0 ft / 0 m

Approach Navaids

Runway Type Ident Frequency Range Bearing (true) Bearing (mag) Slope Elevation
30 Localiser ILVN 108.90 MHz 18 nm / 33 km 297.49° 297.27° - 960 ft / 293 m (AMSL)
30 Glidescope ILVN 108.90 MHz 10 nm / 19 km 297.51° 297.29° 3.00° 953 ft / 290 m (AMSL)